createdAt,value
2018-09-18T00:00:05.467Z,92.60
2018-09-18T00:02:34.467Z,92.70
2018-09-18T00:05:03.565Z,92.70
2018-09-18T00:07:32.720Z,92.90
2018-09-18T00:10:01.775Z,93.00
2018-09-18T00:12:30.852Z,93.20
2018-09-18T00:15:01.757Z,93.20
2018-09-18T00:17:30.808Z,93.40
2018-09-18T00:19:59.870Z,93.50
2018-09-18T00:22:29.182Z,93.50
2018-09-18T00:24:58.196Z,93.70
2018-09-18T00:27:27.251Z,94.10
2018-09-18T00:29:56.271Z,94.10
2018-09-18T00:32:25.266Z,94.30
2018-09-18T00:34:54.496Z,95.30
2018-09-18T00:37:23.473Z,95.50
2018-09-18T00:39:52.601Z,95.50
2018-09-18T00:42:21.589Z,95.60
2018-09-18T00:44:50.657Z,95.40
2018-09-18T00:47:19.682Z,95.80
2018-09-18T00:49:48.687Z,95.30
2018-09-18T00:52:18.736Z,95.20
2018-09-18T00:54:47.764Z,95.20
2018-09-18T00:57:16.820Z,95.10
2018-09-18T00:59:45.974Z,95.20
2018-09-18T01:02:15.163Z,95.40
2018-09-18T01:04:44.276Z,95.30
2018-09-18T01:07:13.507Z,95.30
2018-09-18T01:09:42.539Z,95.30
2018-09-18T01:12:11.519Z,95.40
2018-09-18T01:14:40.660Z,95.50
2018-09-18T01:17:09.715Z,95.60
2018-09-18T01:19:38.719Z,95.40
2018-09-18T01:22:08.119Z,95.60
2018-09-18T01:24:37.151Z,95.60
2018-09-18T01:27:06.314Z,95.70
2018-09-18T01:29:35.420Z,95.70
2018-09-18T01:32:04.485Z,95.70
2018-09-18T01:34:33.818Z,96.30
2018-09-18T01:37:02.876Z,96.30
2018-09-18T01:39:31.896Z,96.10
2018-09-18T01:42:00.903Z,96.00
2018-09-18T01:44:30.229Z,96.10
2018-09-18T01:46:59.198Z,96.10
2018-09-18T01:49:28.220Z,96.50
2018-09-18T01:51:57.275Z,97.00
2018-09-18T01:54:26.285Z,96.80
2018-09-18T01:56:55.378Z,96.70
2018-09-18T01:59:24.432Z,96.80
2018-09-18T02:01:53.439Z,96.80
2018-09-18T02:04:22.516Z,96.50
2018-09-18T02:06:51.572Z,96.70
2018-09-18T02:09:20.860Z,96.60
2018-09-18T02:11:49.940Z,96.70
2018-09-18T02:14:19.021Z,96.70
2018-09-18T02:16:48.019Z,97.10
2018-09-18T02:19:17.059Z,96.90
2018-09-18T02:21:46.080Z,97.20
2018-09-18T02:24:15.102Z,97.10
2018-09-18T02:26:44.137Z,97.30
2018-09-18T02:29:13.135Z,97.60
2018-09-18T02:31:42.140Z,97.70
2018-09-18T02:34:11.142Z,97.30
2018-09-18T02:36:40.207Z,97.40
2018-09-18T02:39:10.980Z,97.40
2018-09-18T02:41:40.204Z,97.60
2018-09-18T02:44:09.185Z,97.20
2018-09-18T02:46:38.207Z,97.30
2018-09-18T02:49:07.601Z,97.20
2018-09-18T02:51:36.595Z,97.30
2018-09-18T02:54:05.640Z,97.20
2018-09-18T02:56:34.672Z,97.30
2018-09-18T02:59:04.044Z,97.30
2018-09-18T03:01:33.055Z,97.20
2018-09-18T03:04:02.265Z,97.10
2018-09-18T03:06:31.503Z,97.30
2018-09-18T03:09:00.506Z,97.50
2018-09-18T03:11:29.693Z,97.40
2018-09-18T03:13:58.856Z,97.40
2018-09-18T03:16:27.905Z,97.50
2018-09-18T03:18:56.978Z,97.50
2018-09-18T03:21:25.974Z,97.70
2018-09-18T03:23:54.989Z,97.80
2018-09-18T03:26:30.774Z,97.80
2018-09-18T03:29:00.026Z,98.00
2018-09-18T03:31:29.040Z,98.00
2018-09-18T03:33:58.363Z,98.10
2018-09-18T03:36:27.767Z,97.80
2018-09-18T03:38:56.768Z,97.90
2018-09-18T03:41:25.780Z,98.10
2018-09-18T03:43:54.774Z,98.10
2018-09-18T03:46:23.791Z,97.90
2018-09-18T03:48:52.836Z,98.10
2018-09-18T03:51:21.874Z,98.40
2018-09-18T03:53:50.915Z,98.60
2018-09-18T03:56:19.919Z,98.60
2018-09-18T03:58:49.038Z,98.70
2018-09-18T04:01:18.048Z,98.90
2018-09-18T04:03:47.090Z,98.90
2018-09-18T04:06:16.129Z,99.00
2018-09-18T04:08:45.148Z,99.10
2018-09-18T04:11:14.177Z,99.10
2018-09-18T04:13:43.210Z,99.20
2018-09-18T04:16:12.262Z,99.20
2018-09-18T04:18:41.316Z,99.30
2018-09-18T04:21:10.355Z,99.50
2018-09-18T04:23:39.438Z,99.40
2018-09-18T04:26:08.448Z,99.40
2018-09-18T04:28:37.509Z,99.60
2018-09-18T04:31:06.548Z,99.60
2018-09-18T04:33:35.600Z,99.80
2018-09-18T04:36:04.639Z,99.60
2018-09-18T04:38:33.687Z,99.50
2018-09-18T04:41:02.771Z,99.70
2018-09-18T04:43:31.769Z,99.40
2018-09-18T04:46:00.830Z,99.70
2018-09-18T04:48:29.954Z,99.20
2018-09-18T04:50:59.008Z,99.10
2018-09-18T04:53:29.001Z,99.10
2018-09-18T04:55:58.022Z,99.40
2018-09-18T04:58:27.021Z,99.70
2018-09-18T05:00:56.022Z,99.90
2018-09-18T05:03:25.053Z,99.90
2018-09-18T05:05:54.108Z,99.90
2018-09-18T05:08:23.194Z,99.90
2018-09-18T05:10:52.272Z,99.90
2018-09-18T05:13:22.728Z,99.90
2018-09-18T05:15:51.893Z,99.90
2018-09-18T05:18:20.988Z,99.90
2018-09-18T05:20:51.162Z,99.90
2018-09-18T05:23:20.224Z,99.90
2018-09-18T05:25:49.398Z,99.90
2018-09-18T05:28:18.424Z,99.90
2018-09-18T05:30:47.490Z,99.90
2018-09-18T05:33:16.488Z,99.90
2018-09-18T05:35:45.494Z,99.90
2018-09-18T05:38:14.549Z,99.90
2018-09-18T05:40:43.891Z,99.90
2018-09-18T05:43:13.112Z,99.90
2018-09-18T05:45:42.091Z,99.90
2018-09-18T05:48:13.419Z,99.90
2018-09-18T05:50:43.055Z,99.90
2018-09-18T05:53:12.576Z,99.90
2018-09-18T05:55:41.865Z,99.90
2018-09-18T05:58:11.064Z,99.90
2018-09-18T06:00:40.118Z,99.90
2018-09-18T06:03:09.168Z,99.90
2018-09-18T06:05:38.268Z,99.90
2018-09-18T06:08:07.548Z,99.90
2018-09-18T06:10:36.592Z,99.60
2018-09-18T06:13:05.610Z,99.50
2018-09-18T06:15:34.985Z,99.40
2018-09-18T06:18:04.148Z,99.30
2018-09-18T06:20:33.296Z,99.40
2018-09-18T06:23:02.532Z,99.00
2018-09-18T06:25:31.706Z,98.80
2018-09-18T06:28:00.778Z,98.50
2018-09-18T06:30:29.812Z,98.40
2018-09-18T06:32:58.844Z,98.50
2018-09-18T06:35:27.940Z,98.40
2018-09-18T06:37:56.950Z,98.40
2018-09-18T06:40:26.002Z,98.20
2018-09-18T06:42:54.996Z,98.10
2018-09-18T06:45:24.035Z,98.00
2018-09-18T06:47:53.107Z,97.90
2018-09-18T06:50:22.338Z,97.80
2018-09-18T06:52:51.394Z,97.80
2018-09-18T06:55:20.404Z,97.60
2018-09-18T06:57:49.679Z,97.50
2018-09-18T07:00:18.705Z,97.50
2018-09-18T07:02:47.706Z,97.40
2018-09-18T07:05:17.020Z,97.30
2018-09-18T07:07:46.063Z,97.20
2018-09-18T07:10:15.107Z,97.50
2018-09-18T07:12:44.465Z,97.00
2018-09-18T07:15:13.600Z,96.80
2018-09-18T07:17:42.760Z,96.70
2018-09-18T07:20:11.933Z,96.60
2018-09-18T07:22:40.985Z,96.30
2018-09-18T07:25:10.120Z,96.10
2018-09-18T07:27:39.242Z,95.70
2018-09-18T07:30:09.212Z,95.70
2018-09-18T07:32:38.337Z,95.30
2018-09-18T07:35:07.606Z,95.10
2018-09-18T07:37:36.644Z,95.00
2018-09-18T07:40:05.760Z,94.70
2018-09-18T07:42:35.026Z,94.70
2018-09-18T07:45:04.773Z,94.70
2018-09-18T07:47:33.776Z,94.60
2018-09-18T07:50:02.816Z,94.50
2018-09-18T07:52:31.842Z,94.30
2018-09-18T07:55:00.893Z,94.30
2018-09-18T07:57:29.916Z,94.10
2018-09-18T07:59:58.935Z,94.00
2018-09-18T08:02:28.012Z,94.00
2018-09-18T08:04:57.240Z,93.80
2018-09-18T08:07:26.304Z,93.50
2018-09-18T08:09:55.442Z,93.30
2018-09-18T08:12:24.494Z,93.10
2018-09-18T08:14:53.600Z,93.10
2018-09-18T08:17:22.626Z,93.10
2018-09-18T08:19:51.767Z,93.00
2018-09-18T08:22:20.866Z,92.80
2018-09-18T08:24:49.906Z,92.60
2018-09-18T08:27:18.933Z,92.40
2018-09-18T08:29:47.982Z,92.10
2018-09-18T08:32:17.140Z,91.80
2018-09-18T08:34:46.191Z,92.10
2018-09-18T08:37:15.214Z,91.60
2018-09-18T08:39:44.315Z,91.40
2018-09-18T08:42:13.579Z,91.20
2018-09-18T08:44:42.618Z,90.80
2018-09-18T08:47:11.653Z,90.30
2018-09-18T08:49:41.180Z,90.20
2018-09-18T08:52:10.476Z,90.20
2018-09-18T08:54:39.649Z,90.00
2018-09-18T08:57:08.649Z,89.50
2018-09-18T08:59:37.711Z,90.00
2018-09-18T09:02:06.805Z,88.60
2018-09-18T09:04:36.128Z,88.00
2018-09-18T09:07:05.366Z,86.10
2018-09-18T09:09:34.604Z,84.80
2018-09-18T09:12:03.816Z,84.00
2018-09-18T09:14:32.933Z,83.90
2018-09-18T09:17:02.169Z,83.20
2018-09-18T09:19:31.275Z,82.90
2018-09-18T09:22:00.406Z,82.10
2018-09-18T09:24:29.602Z,81.20
2018-09-18T09:26:58.713Z,80.80
2018-09-18T09:29:28.045Z,79.90
2018-09-18T09:31:57.081Z,79.80
2018-09-18T09:34:26.308Z,79.80
2018-09-18T09:36:55.429Z,79.40
2018-09-18T09:39:24.605Z,79.50
2018-09-18T09:41:53.661Z,79.60
2018-09-18T09:44:22.866Z,79.20
2018-09-18T09:46:51.981Z,78.90
2018-09-18T09:49:20.988Z,78.80
2018-09-18T09:51:50.059Z,78.60
2018-09-18T09:54:19.056Z,78.40
2018-09-18T09:56:48.133Z,78.40
2018-09-18T09:59:17.751Z,78.20
2018-09-18T10:01:55.065Z,77.60
2018-09-18T10:04:24.178Z,77.60
2018-09-18T10:06:53.166Z,77.00
2018-09-18T10:09:22.287Z,76.80
2018-09-18T10:11:51.274Z,77.20
2018-09-18T10:14:20.357Z,76.70
2018-09-18T10:16:49.632Z,76.60
2018-09-18T10:19:19.067Z,75.90
2018-09-18T10:21:48.117Z,75.80
2018-09-18T10:24:17.181Z,76.50
2018-09-18T10:26:46.587Z,76.20
2018-09-18T10:29:15.773Z,75.70
2018-09-18T10:31:44.892Z,75.40
2018-09-18T10:34:14.120Z,75.00
2018-09-18T10:36:44.227Z,74.50
2018-09-18T10:39:13.446Z,74.20
2018-09-18T10:41:42.740Z,74.30
2018-09-18T10:44:12.071Z,73.90
2018-09-18T10:46:41.515Z,73.80
2018-09-18T10:49:10.952Z,73.40
2018-09-18T10:51:40.064Z,73.60
2018-09-18T10:54:09.253Z,73.40
2018-09-18T10:56:38.426Z,72.50
2018-09-18T10:59:08.585Z,71.30
2018-09-18T11:01:37.634Z,68.10
2018-09-18T11:04:07.568Z,61.10
2018-09-18T11:06:37.368Z,54.00
2018-09-18T11:09:08.982Z,49.40
2018-09-18T11:11:39.862Z,45.90
2018-09-18T11:14:10.621Z,43.70
2018-09-18T11:16:40.675Z,41.50
2018-09-18T11:19:10.598Z,40.00
2018-09-18T11:21:40.608Z,38.80
2018-09-18T11:24:10.400Z,37.90
2018-09-18T11:26:40.153Z,37.50
2018-09-18T11:29:09.802Z,37.60
2018-09-18T11:31:39.407Z,37.20
2018-09-18T11:34:09.025Z,36.90
2018-09-18T11:36:38.631Z,37.00
2018-09-18T11:39:09.237Z,36.20
2018-09-18T11:41:38.833Z,35.30
2018-09-18T11:44:08.435Z,35.10
2018-09-18T11:46:37.803Z,35.10
2018-09-18T11:49:07.296Z,34.90
2018-09-18T11:51:36.915Z,34.30
2018-09-18T11:54:06.746Z,34.40
2018-09-18T11:56:36.342Z,35.60
2018-09-18T11:59:06.161Z,37.50
2018-09-18T12:01:36.067Z,37.40
2018-09-18T12:04:06.787Z,36.20
2018-09-18T12:06:36.310Z,35.30
2018-09-18T12:09:08.719Z,34.70
2018-09-18T12:11:38.177Z,34.30
2018-09-18T12:14:07.974Z,34.20
2018-09-18T12:16:37.429Z,33.80
2018-09-18T12:19:07.377Z,33.30
2018-09-18T12:21:36.662Z,32.30
2018-09-18T12:24:06.039Z,32.10
2018-09-18T12:26:35.334Z,32.30
2018-09-18T12:29:04.651Z,32.20
2018-09-18T12:31:33.979Z,33.20
2018-09-18T12:34:03.299Z,32.30
2018-09-18T12:36:32.618Z,31.30
2018-09-18T12:39:01.918Z,31.40
2018-09-18T12:41:31.472Z,31.20
2018-09-18T12:44:00.850Z,30.90
2018-09-18T12:46:30.227Z,31.00
2018-09-18T12:48:59.688Z,29.90
2018-09-18T12:51:29.196Z,29.70
2018-09-18T12:53:58.557Z,29.60
2018-09-18T12:56:28.140Z,29.10
2018-09-18T12:58:57.754Z,30.30
2018-09-18T13:01:27.439Z,29.80
2018-09-18T13:03:56.923Z,29.30
2018-09-18T13:06:26.592Z,29.20
2018-09-18T13:08:56.331Z,29.60
2018-09-18T13:11:25.641Z,29.20
2018-09-18T13:13:55.104Z,29.00
2018-09-18T13:16:24.398Z,29.10
2018-09-18T13:18:53.999Z,28.60
2018-09-18T13:21:23.320Z,28.70
2018-09-18T13:23:52.820Z,28.50
2018-09-18T13:26:22.136Z,28.00
2018-09-18T13:28:51.425Z,28.20
2018-09-18T13:31:20.748Z,28.00
2018-09-18T13:33:52.088Z,28.00
2018-09-18T13:36:21.518Z,28.20
2018-09-18T13:38:51.037Z,28.60
2018-09-18T13:41:20.368Z,29.50
2018-09-18T13:43:49.795Z,29.10
2018-09-18T13:46:19.193Z,28.90
2018-09-18T13:48:48.676Z,28.20
2018-09-18T13:51:18.034Z,29.80
2018-09-18T13:53:47.316Z,32.50
2018-09-18T13:56:17.322Z,31.70
2018-09-18T13:58:46.749Z,32.00
2018-09-18T14:01:16.655Z,32.40
2018-09-18T14:03:46.454Z,32.90
2018-09-18T14:06:16.119Z,32.80
2018-09-18T14:08:45.435Z,32.80
2018-09-18T14:11:14.959Z,32.60
2018-09-18T14:13:44.331Z,34.10
2018-09-18T14:16:13.871Z,34.20
2018-09-18T14:18:43.301Z,34.40
2018-09-18T14:21:12.848Z,32.80
2018-09-18T14:23:42.177Z,32.10
2018-09-18T14:26:11.557Z,34.30
2018-09-18T14:28:41.071Z,34.30
2018-09-18T14:31:10.379Z,34.50
2018-09-18T14:33:40.049Z,34.00
2018-09-18T14:36:09.455Z,33.60
2018-09-18T14:38:39.252Z,33.60
2018-09-18T14:41:08.541Z,33.20
2018-09-18T14:43:38.190Z,33.30
2018-09-18T14:46:07.830Z,35.50
2018-09-18T14:48:37.088Z,35.70
2018-09-18T14:51:07.644Z,34.70
2018-09-18T14:53:37.122Z,33.40
2018-09-18T14:56:06.603Z,33.20
2018-09-18T14:58:36.511Z,35.10
2018-09-18T15:01:05.813Z,33.60
2018-09-18T15:03:35.085Z,33.60
2018-09-18T15:06:04.402Z,34.90
2018-09-18T15:08:33.698Z,33.60
2018-09-18T15:11:02.992Z,33.20
2018-09-18T15:13:32.508Z,32.80
2018-09-18T15:16:01.856Z,32.70
2018-09-18T15:18:31.304Z,33.10
2018-09-18T15:21:00.601Z,33.80
2018-09-18T15:23:30.253Z,34.70
2018-09-18T15:25:59.893Z,35.80
2018-09-18T15:28:29.646Z,37.30
2018-09-18T15:30:58.933Z,36.00
2018-09-18T15:33:28.546Z,36.20
2018-09-18T15:35:58.052Z,35.70
2018-09-18T15:38:27.755Z,36.00
2018-09-18T15:40:57.105Z,35.70
2018-09-18T15:43:26.738Z,36.60
2018-09-18T15:46:01.988Z,37.40
2018-09-18T15:48:31.828Z,39.30
2018-09-18T15:51:01.644Z,40.40
2018-09-18T15:53:31.265Z,42.30
2018-09-18T15:56:01.022Z,44.50
2018-09-18T15:58:30.626Z,46.60
2018-09-18T16:01:00.282Z,47.60
2018-09-18T16:03:29.919Z,48.40
2018-09-18T16:05:59.598Z,49.20
2018-09-18T16:08:29.206Z,48.50
2018-09-18T16:10:58.818Z,46.30
2018-09-18T16:13:28.493Z,44.60
2018-09-18T16:15:58.218Z,45.40
2018-09-18T16:18:27.963Z,45.80
2018-09-18T16:20:57.755Z,46.90
2018-09-18T16:23:27.361Z,47.60
2018-09-18T16:25:57.060Z,48.60
2018-09-18T16:28:26.751Z,49.50
2018-09-18T16:30:56.396Z,50.30
2018-09-18T16:33:26.093Z,51.00
2018-09-18T16:35:55.695Z,50.70
2018-09-18T16:38:25.253Z,51.70
2018-09-18T16:40:54.880Z,51.90
2018-09-18T16:43:24.494Z,51.50
2018-09-18T16:45:54.165Z,51.80
2018-09-18T16:48:23.985Z,52.10
2018-09-18T16:50:53.849Z,53.30
2018-09-18T16:53:23.474Z,54.00
2018-09-18T16:55:53.360Z,54.20
2018-09-18T16:58:23.005Z,55.00
2018-09-18T17:00:53.160Z,55.70
2018-09-18T17:03:22.744Z,56.70
2018-09-18T17:05:52.332Z,57.30
2018-09-18T17:08:21.952Z,57.90
2018-09-18T17:10:51.495Z,58.50
2018-09-18T17:13:21.149Z,59.30
2018-09-18T17:15:50.929Z,60.20
2018-09-18T17:18:20.786Z,61.20
2018-09-18T17:20:50.780Z,62.10
2018-09-18T17:23:20.450Z,63.30
2018-09-18T17:25:49.468Z,64.10
2018-09-18T17:28:18.575Z,64.90
2018-09-18T17:30:47.725Z,65.90
2018-09-18T17:33:16.770Z,67.00
2018-09-18T17:35:45.800Z,67.80
2018-09-18T17:38:15.183Z,68.10
2018-09-18T17:40:44.259Z,68.80
2018-09-18T17:43:13.349Z,69.60
2018-09-18T17:45:42.525Z,69.90
2018-09-18T17:48:11.568Z,70.70
2018-09-18T17:50:40.800Z,71.40
2018-09-18T17:53:09.922Z,72.50
2018-09-18T17:55:38.967Z,73.30
2018-09-18T17:58:08.057Z,73.80
2018-09-18T18:00:37.333Z,74.50
2018-09-18T18:03:06.409Z,75.10
2018-09-18T18:05:35.473Z,75.90
2018-09-18T18:08:04.916Z,76.90
2018-09-18T18:10:33.945Z,77.70
2018-09-18T18:13:02.989Z,78.20
2018-09-18T18:15:32.026Z,79.00
2018-09-18T18:18:01.060Z,79.50
2018-09-18T18:20:30.124Z,80.10
2018-09-18T18:22:59.267Z,80.70
2018-09-18T18:25:28.500Z,81.20
2018-09-18T18:27:57.517Z,81.80
2018-09-18T18:30:26.790Z,82.00
2018-09-18T18:32:55.825Z,82.40
2018-09-18T18:35:24.905Z,82.50
2018-09-18T18:37:54.188Z,82.70
2018-09-18T18:40:23.334Z,82.90
2018-09-18T18:42:52.451Z,83.10
2018-09-18T18:45:22.053Z,83.50
2018-09-18T18:47:51.369Z,84.30
2018-09-18T18:50:20.453Z,84.60
2018-09-18T18:52:49.476Z,84.70
2018-09-18T18:55:18.487Z,85.00
2018-09-18T18:57:47.506Z,85.40
2018-09-18T19:00:16.584Z,85.70
2018-09-18T19:02:45.847Z,85.80
2018-09-18T19:05:14.909Z,86.60
2018-09-18T19:07:43.918Z,85.90
2018-09-18T19:10:12.896Z,85.70
2018-09-18T19:12:42.191Z,85.90
2018-09-18T19:15:11.258Z,86.10
2018-09-18T19:17:40.287Z,86.10
2018-09-18T19:20:09.376Z,86.20
2018-09-18T19:22:38.484Z,86.60
2018-09-18T19:25:07.565Z,87.00
2018-09-18T19:27:36.804Z,87.10
2018-09-18T19:30:06.648Z,87.50
2018-09-18T19:32:35.790Z,88.10
2018-09-18T19:35:04.875Z,88.20
2018-09-18T19:37:34.255Z,88.40
2018-09-18T19:40:03.451Z,88.40
2018-09-18T19:42:32.516Z,88.50
2018-09-18T19:45:01.766Z,88.60
2018-09-18T19:47:32.476Z,88.70
2018-09-18T19:50:01.508Z,88.80
2018-09-18T19:52:30.573Z,89.20
2018-09-18T19:54:59.618Z,89.10
2018-09-18T19:57:28.830Z,89.20
2018-09-18T19:59:57.871Z,88.90
2018-09-18T20:02:26.964Z,88.80
2018-09-18T20:04:56.211Z,88.70
2018-09-18T20:07:25.265Z,89.30
2018-09-18T20:09:54.353Z,88.80
2018-09-18T20:12:23.378Z,88.50
2018-09-18T20:14:52.475Z,88.40
2018-09-18T20:17:21.652Z,89.10
2018-09-18T20:19:50.712Z,89.60
2018-09-18T20:22:19.957Z,89.90
2018-09-18T20:24:48.987Z,90.00
2018-09-18T20:27:18.010Z,90.00
2018-09-18T20:29:47.128Z,90.40
2018-09-18T20:32:16.328Z,90.60
2018-09-18T20:34:45.337Z,90.60
2018-09-18T20:37:14.414Z,90.60
2018-09-18T20:39:43.465Z,90.80
2018-09-18T20:42:12.546Z,90.90
2018-09-18T20:44:41.769Z,90.80
2018-09-18T20:47:10.901Z,90.90
2018-09-18T20:49:40.325Z,91.10
2018-09-18T20:52:09.321Z,91.10
2018-09-18T20:54:38.337Z,91.00
2018-09-18T20:57:07.389Z,91.00
2018-09-18T20:59:36.432Z,91.40
2018-09-18T21:02:05.887Z,91.40
2018-09-18T21:04:35.417Z,91.20
2018-09-18T21:07:04.478Z,91.10
2018-09-18T21:09:33.699Z,91.10
2018-09-18T21:12:02.725Z,90.90
2018-09-18T21:14:31.742Z,90.70
2018-09-18T21:17:01.126Z,90.30
2018-09-18T21:19:30.191Z,90.00
2018-09-18T21:21:59.453Z,90.00
2018-09-18T21:24:28.878Z,90.00
2018-09-18T21:26:57.896Z,88.40
2018-09-18T21:29:26.920Z,86.80
2018-09-18T21:31:55.958Z,85.80
2018-09-18T21:34:24.995Z,86.30
2018-09-18T21:36:54.033Z,88.60
2018-09-18T21:39:23.112Z,88.60
2018-09-18T21:41:52.167Z,87.30
2018-09-18T21:44:21.175Z,89.50
2018-09-18T21:46:50.233Z,90.10
2018-09-18T21:49:19.261Z,90.50
2018-09-18T21:51:48.303Z,90.20
2018-09-18T21:54:17.363Z,90.60
2018-09-18T21:56:46.366Z,91.40
2018-09-18T21:59:15.437Z,91.60
2018-09-18T22:01:44.828Z,91.00
2018-09-18T22:04:14.720Z,90.60
2018-09-18T22:06:43.752Z,90.50
2018-09-18T22:09:12.920Z,90.60
2018-09-18T22:11:42.014Z,90.90
2018-09-18T22:14:11.244Z,90.70
2018-09-18T22:16:40.342Z,90.70
2018-09-18T22:19:09.544Z,90.10
2018-09-18T22:21:38.560Z,90.00
2018-09-18T22:24:07.616Z,90.40
2018-09-18T22:26:36.642Z,90.60
2018-09-18T22:29:05.722Z,90.50
2018-09-18T22:31:34.752Z,90.50
2018-09-18T22:34:03.790Z,90.60
2018-09-18T22:36:32.840Z,90.70
2018-09-18T22:39:01.885Z,90.90
2018-09-18T22:41:31.106Z,90.90
2018-09-18T22:44:00.128Z,91.20
2018-09-18T22:46:29.171Z,91.10
2018-09-18T22:48:58.451Z,91.70
2018-09-18T22:51:27.555Z,91.80
2018-09-18T22:53:56.644Z,93.00
2018-09-18T22:56:25.925Z,92.90
2018-09-18T22:58:55.004Z,92.80
2018-09-18T23:01:24.076Z,92.00
2018-09-18T23:03:53.177Z,92.00
2018-09-18T23:06:22.178Z,91.60
2018-09-18T23:08:51.285Z,91.90
2018-09-18T23:11:20.309Z,91.70
2018-09-18T23:13:49.373Z,91.70
2018-09-18T23:16:18.411Z,91.80
2018-09-18T23:18:47.468Z,91.60
2018-09-18T23:21:16.698Z,91.80
2018-09-18T23:23:45.726Z,91.90
2018-09-18T23:26:14.779Z,92.00
2018-09-18T23:28:43.865Z,92.20
2018-09-18T23:31:12.914Z,92.10
2018-09-18T23:33:41.940Z,92.40
2018-09-18T23:36:10.994Z,92.50
2018-09-18T23:38:40.235Z,92.30
2018-09-18T23:41:09.347Z,92.30
2018-09-18T23:43:38.622Z,92.20
2018-09-18T23:46:07.620Z,92.40
2018-09-18T23:48:36.649Z,92.40
2018-09-18T23:51:05.977Z,92.60
2018-09-18T23:53:34.994Z,93.00
2018-09-18T23:56:04.062Z,93.10
2018-09-18T23:58:33.322Z,92.50
